Airport Name : Rio Gallegos

Other Name : Rio Gallegos

ICAO : SAWG

IATA : RGL

FAA :

Latitude : -51.608875

Longitude : -69.312636

Country : Argentina

Local Date and Time : 22 Oct 2020 17:55

 

TAF (Terminal Aerodrome Forecast)

TAF SAWG 221700Z 2218/2318 27012KT 9999 SCT030 OVC070 TX18/2218Z TN06/2311Z BECMG 2223/2301 VRB05KT -SHRA BKN020 BKN060 BECMG 2314/2316 09010KT NSW SCT020 SCT030

 

METAR (METeorological Aerodrome Report)

SAWG 222000Z 23008KT 9999 -RA FEW040 SCT070 15/00 Q1009

SAWG 221900Z 23011KT 9999 SCT040 BKN090 15/02 Q1009

SAWG 221800Z 23012KT 9999 SCT040 16/02 Q1008

SAWG 221700Z 25011KT 9999 FEW035 SCT040 16/02 Q1009

To Charter a Jet Click here.